Time;durP1;ratioP1;P1;durP2;ratioP2;P2;SDS_P1;SDS_P2;PMS_P1;PMS_P2;Temp;Humidity;BMP_temperature;BMP_pressure;BME280_temperature;BME280_humidity;BME280_pressure;Samples;Min_cycle;Max_cycle;Signal;HPM_P1;HPM_P2
2023/03/15 06:11:27;;;;;;;;;16.00;10.25;;;;;-142.59;100.00;56100.38;4861845;23;51847;-73
2023/03/15 06:13:52;;;;;;;;;12.00;12.00;;;;;-142.59;100.00;56100.38;4975332;28;49812;-76
2023/03/15 06:16:17;;;;;;;;;16.50;14.25;;;;;-142.59;100.00;56100.38;4964366;28;49883;-71
2023/03/15 06:18:43;;;;;;;;;6.25;6.25;;;;;-142.59;100.00;56100.38;4967656;28;49935;-75
2023/03/15 06:21:08;;;;;;;;;6.50;6.50;;;;;-142.59;100.00;56100.38;4969613;28;50074;-70
2023/03/15 06:23:33;;;;;;;;;9.75;9.50;;;;;-142.59;100.00;56100.38;4951831;28;49716;-66
2023/03/15 06:25:59;;;;;;;;;15.25;13.50;;;;;-142.59;100.00;56100.38;4951263;28;59819;-73
2023/03/15 06:28:24;;;;;;;;;16.50;12.75;;;;;-142.59;100.00;56100.38;4966753;28;49770;-73
2023/03/15 06:30:50;;;;;;;;;11.50;11.50;;;;;-142.59;100.00;56100.38;4968384;28;51105;-73
2023/03/15 06:33:15;;;;;;;;;13.50;10.50;;;;;-142.59;100.00;56100.38;4972587;28;49707;-71
2023/03/15 06:35:41;;;;;;;;;14.50;10.75;;;;;-142.59;100.00;56100.38;4973905;28;49644;-71
2023/03/15 06:38:06;;;;;;;;;10.25;10.25;;;;;-142.59;100.00;56100.38;4973089;28;49747;-73
2023/03/15 06:40:32;;;;;;;;;12.00;12.00;;;;;-142.59;100.00;56100.38;4972427;28;52511;-68
2023/03/15 06:42:57;;;;;;;;;8.50;8.50;;;;;-142.59;100.00;56100.38;4972371;28;56224;-71
2023/03/15 06:45:22;;;;;;;;;12.25;12.25;;;;;-142.59;100.00;56100.38;4966961;28;49743;-75
2023/03/15 06:47:48;;;;;;;;;12.75;10.00;;;;;-142.59;100.00;56100.38;4957054;28;49538;-72
2023/03/15 06:50:13;;;;;;;;;12.00;8.50;;;;;-142.59;100.00;56100.38;4954016;28;50630;-74
2023/03/15 06:52:38;;;;;;;;;10.25;10.25;;;;;-142.59;100.00;56100.38;4954115;28;49839;-75
2023/03/15 06:55:05;;;;;;;;;9.75;9.25;;;;;-142.59;100.00;56100.38;4954016;28;50321;-75
2023/03/15 06:57:30;;;;;;;;;11.50;11.25;;;;;-142.59;100.00;56100.38;4954230;28;49978;-75
2023/03/15 06:59:55;;;;;;;;;11.00;11.00;;;;;-142.59;100.00;56100.38;4961732;28;49792;-73
2023/03/15 07:02:21;;;;;;;;;15.25;12.25;;;;;-142.59;100.00;56100.38;4965087;28;49998;-74
2023/03/15 07:04:47;;;;;;;;;11.25;11.25;;;;;-142.59;100.00;56100.38;4953751;28;49846;-77
2023/03/15 07:07:13;;;;;;;;;19.50;12.25;;;;;-142.59;100.00;56100.38;4953931;28;49627;-74
2023/03/15 07:09:39;;;;;;;;;10.00;10.00;;;;;-142.59;100.00;56100.38;4966886;28;51479;-73
2023/03/15 07:12:05;;;;;;;;;12.25;12.00;;;;;-142.59;100.00;56100.38;4965127;28;49817;-77
2023/03/15 07:14:32;;;;;;;;;16.75;8.75;;;;;-142.59;100.00;56100.38;4953899;28;49638;-63
2023/03/15 07:16:57;;;;;;;;;11.75;11.75;;;;;-142.59;100.00;56100.38;4953937;28;49937;-63
2023/03/15 07:19:23;;;;;;;;;16.50;10.75;;;;;-142.59;100.00;56100.38;4969835;28;50994;-67
2023/03/15 07:21:48;;;;;;;;;10.00;9.00;;;;;-142.59;100.00;56100.38;4958708;28;49720;-75
2023/03/15 07:24:14;;;;;;;;;13.00;10.25;;;;;-142.59;100.00;56100.38;4956657;28;49625;-71
2023/03/15 07:26:39;;;;;;;;;10.50;10.00;;;;;-142.59;100.00;56100.38;4966207;28;49701;-66
2023/03/15 07:29:04;;;;;;;;;13.00;10.00;;;;;-142.59;100.00;56100.38;4961936;28;50900;-66
2023/03/15 07:31:30;;;;;;;;;14.25;9.25;;;;;-142.59;100.00;56100.38;4954847;28;49784;-66
2023/03/15 07:33:56;;;;;;;;;13.50;9.75;;;;;-142.59;100.00;56100.38;4953263;28;50035;-64
2023/03/15 07:36:21;;;;;;;;;6.75;6.75;;;;;-142.59;100.00;56100.38;4955778;28;49862;-74
2023/03/15 07:38:47;;;;;;;;;9.75;9.75;;;;;-142.59;100.00;56100.38;4935401;28;51368;-65
2023/03/15 07:41:12;;;;;;;;;5.00;5.00;;;;;-142.59;100.00;56100.38;4954084;28;50005;-65
2023/03/15 07:43:37;;;;;;;;;7.50;6.00;;;;;-142.59;100.00;56100.38;4953423;28;49748;-75
2023/03/15 07:46:03;;;;;;;;;7.00;6.25;;;;;-142.59;100.00;56100.38;4936744;28;49979;-66
2023/03/15 07:48:29;;;;;;;;;10.50;7.50;;;;;-142.59;100.00;56100.38;4952419;28;50742;-75
2023/03/15 07:50:55;;;;;;;;;7.00;7.00;;;;;-142.59;100.00;56100.38;4953003;28;49673;-70
2023/03/15 07:53:20;;;;;;;;;7.50;6.50;;;;;-142.59;100.00;56100.38;4952919;28;49771;-63
2023/03/15 07:55:47;;;;;;;;;11.25;9.00;;;;;-142.59;100.00;56100.38;4959276;28;49679;-76
2023/03/15 07:58:13;;;;;;;;;9.75;7.00;;;;;-142.59;100.00;56100.38;4952804;28;49805;-77
2023/03/15 08:00:38;;;;;;;;;6.00;6.00;;;;;-142.59;100.00;56100.38;4958320;28;49668;-68
2023/03/15 08:03:04;;;;;;;;;5.00;5.00;;;;;-142.59;100.00;56100.38;4952613;28;49925;-76
2023/03/15 08:05:29;;;;;;;;;10.00;3.00;;;;;-142.59;100.00;56100.38;4962583;28;50021;-64
2023/03/15 08:07:55;;;;;;;;;7.50;7.50;;;;;-142.59;100.00;56100.38;4949263;28;50905;-80
2023/03/15 08:10:20;;;;;;;;;3.50;3.00;;;;;-142.59;100.00;56100.38;4962538;28;49836;-63
2023/03/15 08:12:46;;;;;;;;;10.75;8.50;;;;;-142.59;100.00;56100.38;4960699;28;49823;-66
2023/03/15 08:15:13;;;;;;;;;8.25;8.25;;;;;-142.59;100.00;56100.38;4960749;28;49954;-68
2023/03/15 08:17:39;;;;;;;;;10.00;10.00;;;;;-142.59;100.00;56100.38;4942029;28;51151;-75
2023/03/15 08:20:09;;;;;;;;;11.00;10.25;;;;;-142.59;100.00;56100.38;4958719;28;49833;-75
2023/03/15 08:22:36;;;;;;;;;11.50;9.50;;;;;-142.59;100.00;56100.38;4959723;28;49949;-71
2023/03/15 08:25:01;;;;;;;;;11.25;11.00;;;;;-142.59;100.00;56100.38;4958373;28;50180;-63
2023/03/15 08:27:26;;;;;;;;;16.00;12.25;;;;;-142.59;100.00;56100.38;4957291;28;52651;-66
2023/03/15 08:29:52;;;;;;;;;10.50;10.00;;;;;-142.59;100.00;56100.38;4959213;28;49970;-62
2023/03/15 08:32:18;;;;;;;;;8.25;6.75;;;;;-142.59;100.00;56100.38;4958711;28;50222;-70
2023/03/15 08:34:44;;;;;;;;;10.25;8.25;;;;;-142.59;100.00;56100.38;4958805;28;49886;-64
2023/03/15 08:37:10;;;;;;;;;5.00;4.50;;;;;-142.59;100.00;56100.38;4957643;28;50577;-62
2023/03/15 08:39:37;;;;;;;;;12.75;9.25;;;;;-142.59;100.00;56100.38;4959061;28;50247;-65
2023/03/15 08:42:02;;;;;;;;;9.25;7.00;;;;;-142.59;100.00;56100.38;4956796;28;49818;-62
2023/03/15 08:44:28;;;;;;;;;6.00;5.00;;;;;-142.59;100.00;56100.38;4957734;28;50199;-62
2023/03/15 08:46:53;;;;;;;;;6.25;5.25;;;;;-142.59;100.00;56100.38;4959489;28;51308;-67
2023/03/15 08:49:18;;;;;;;;;2.00;2.00;;;;;-142.59;100.00;56100.38;4957198;28;50110;-74
2023/03/15 08:51:44;;;;;;;;;6.75;3.00;;;;;-142.59;100.00;56100.38;4958671;28;49731;-69
2023/03/15 08:54:09;;;;;;;;;3.50;3.00;;;;;-142.59;100.00;56100.38;4939887;28;49762;-62
2023/03/15 08:56:35;;;;;;;;;7.00;2.25;;;;;-142.59;100.00;56100.38;4958369;28;49889;-62
2023/03/15 08:59:00;;;;;;;;;9.00;5.50;;;;;-142.59;100.00;56100.38;4957004;28;49999;-65
2023/03/15 09:01:29;;;;;;;;;5.00;5.00;;;;;-142.59;100.00;56100.38;4959435;28;49846;-72
2023/03/15 09:03:54;;;;;;;;;6.25;5.75;;;;;-142.59;100.00;56100.38;4954924;28;50012;-66
2023/03/15 09:06:19;;;;;;;;;5.75;4.75;;;;;-142.59;100.00;56100.38;4955900;28;50681;-63
2023/03/15 09:08:45;;;;;;;;;7.00;6.00;;;;;-142.59;100.00;56100.38;4958424;28;50025;-68
2023/03/15 09:11:10;;;;;;;;;6.25;6.25;;;;;-142.59;100.00;56100.38;4962413;28;50153;-63
2023/03/15 09:13:35;;;;;;;;;3.50;3.50;;;;;-142.59;100.00;56100.38;4953420;28;50045;-62
2023/03/15 09:16:02;;;;;;;;;5.25;4.25;;;;;-142.59;100.00;56100.38;4953106;28;49633;-62
2023/03/15 09:18:27;;;;;;;;;5.00;4.00;;;;;-142.59;100.00;56100.38;4958950;28;49642;-64
2023/03/15 09:20:53;;;;;;;;;5.75;4.50;;;;;-142.59;100.00;56100.38;4956985;28;49776;-66
2023/03/15 09:23:18;;;;;;;;;7.25;7.00;;;;;-142.59;100.00;56100.38;4958270;28;49850;-65
2023/03/15 09:25:44;;;;;;;;;9.25;6.00;;;;;-142.59;100.00;56100.38;4951301;28;49742;-68
2023/03/15 09:28:10;;;;;;;;;3.75;3.75;;;;;-142.59;100.00;56100.38;4956817;28;50042;-69
2023/03/15 09:30:37;;;;;;;;;4.25;3.00;;;;;-142.59;100.00;56100.38;4951528;28;49819;-67
2023/03/15 09:33:03;;;;;;;;;8.00;6.75;;;;;-142.59;100.00;56100.38;4953913;28;49972;-65
2023/03/15 09:35:29;;;;;;;;;2.75;2.75;;;;;-142.59;100.00;56100.38;4954551;28;49926;-73
2023/03/15 09:37:54;;;;;;;;;3.00;3.00;;;;;-142.59;100.00;56100.38;4957713;28;49764;-69
2023/03/15 09:40:22;;;;;;;;;4.50;3.00;;;;;-142.59;100.00;56100.38;4956011;28;49730;-63
2023/03/15 09:43:05;;;;;;;;;4.00;4.00;;;;;-142.59;100.00;56100.38;4955593;28;49836;-69
2023/03/15 09:46:08;;;;;;;;;3.50;2.50;;;;;-142.59;100.00;56100.38;4958909;28;50479;-63
2023/03/15 09:48:48;;;;;;;;;2.00;2.00;;;;;-142.59;100.00;56100.38;4952516;28;49944;-69
2023/03/15 09:51:24;;;;;;;;;2.00;2.00;;;;;-142.59;100.00;56100.38;4953482;28;49819;-74
2023/03/15 09:53:57;;;;;;;;;2.75;2.50;;;;;-142.59;100.00;56100.38;4952945;28;49902;-65
2023/03/15 09:56:29;;;;;;;;;4.00;4.00;;;;;-142.59;100.00;56100.38;4950936;28;51134;-69
2023/03/15 09:59:01;;;;;;;;;6.75;5.50;;;;;-142.59;100.00;56100.38;4958346;28;49715;-65
2023/03/15 10:01:38;;;;;;;;;7.50;6.75;;;;;-142.59;100.00;56100.38;4956727;28;49906;-75
2023/03/15 10:04:33;;;;;;;;;3.00;3.00;;;;;-142.59;100.00;56100.38;4955106;28;49990;-65
2023/03/15 10:07:01;;;;;;;;;34.75;34.75;;;;;-142.59;100.00;56100.38;4950322;28;49790;-67
2023/03/15 10:09:36;;;;;;;;;7.50;3.50;;;;;-142.59;100.00;56100.38;4955229;28;49820;-65
2023/03/15 10:12:07;;;;;;;;;31.75;27.25;;;;;-142.59;100.00;56100.38;4957820;28;50067;-66
2023/03/15 10:14:54;;;;;;;;;14.25;13.50;;;;;-142.59;100.00;56100.38;4957660;28;49840;-70
2023/03/15 10:17:49;;;;;;;;;53.75;45.75;;;;;-142.59;100.00;56100.38;4957272;28;51380;-68
2023/03/15 10:20:17;;;;;;;;;5.75;4.00;;;;;-142.59;100.00;56100.38;4953981;28;50519;-62
2023/03/15 10:22:53;;;;;;;;;9.25;8.25;;;;;-142.59;100.00;56100.38;4956357;28;49688;-71
2023/03/15 10:25:26;;;;;;;;;12.50;10.25;;;;;-142.59;100.00;56100.38;4953681;28;49935;-75
2023/03/15 10:28:06;;;;;;;;;8.00;8.00;;;;;-142.59;100.00;56100.38;4945153;28;50770;-62
2023/03/15 10:30:34;;;;;;;;;11.50;11.50;;;;;-142.59;100.00;56100.38;4970706;28;50450;-64
2023/03/15 10:33:13;;;;;;;;;9.75;8.00;;;;;-142.59;100.00;56100.38;4967600;28;49746;-70
2023/03/15 10:35:38;;;;;;;;;3.00;1.25;;;;;-142.59;100.00;56100.38;4967987;28;49807;-79
2023/03/15 10:38:19;;;;;;;;;6.50;3.75;;;;;-142.59;100.00;56100.38;4972513;28;51202;-73
2023/03/15 10:40:53;;;;;;;;;3.25;2.00;;;;;-142.59;100.00;56100.38;4953935;28;49892;-78
2023/03/15 10:43:28;;;;;;;;;30.50;28.00;;;;;-142.59;100.00;56100.38;4960475;28;50065;-74
2023/03/15 10:46:03;;;;;;;;;28.50;25.25;;;;;-142.59;100.00;56100.38;4960437;28;49801;-78
2023/03/15 10:48:31;;;;;;;;;2.50;1.00;;;;;-142.59;100.00;56100.38;4953207;28;50749;-78
2023/03/15 10:51:03;;;;;;;;;182.75;154.75;;;;;-142.59;100.00;56100.38;4960488;28;49791;-74
2023/03/15 10:53:28;;;;;;;;;172.75;161.25;;;;;-142.59;100.00;56100.38;4960460;28;50150;-75
2023/03/15 10:56:04;;;;;;;;;83.33;65.33;;;;;-142.59;100.00;56100.38;4962883;28;49807;-71
2023/03/15 10:58:40;;;;;;;;;19.00;19.00;;;;;-142.59;100.00;56100.38;4967137;28;50614;-67
2023/03/15 11:01:12;;;;;;;;;34.50;26.75;;;;;-142.59;100.00;56100.38;4952716;28;49879;-72
2023/03/15 11:03:40;;;;;;;;;13.25;9.50;;;;;-142.59;100.00;56100.38;4969788;28;49610;-68
2023/03/15 11:06:27;;;;;;;;;6.50;4.25;;;;;-142.59;100.00;56100.38;4963796;28;49946;-67
2023/03/15 11:09:06;;;;;;;;;23.25;15.50;;;;;-142.59;100.00;56100.38;4965665;28;50120;-62
2023/03/15 11:12:01;;;;;;;;;27.00;26.50;;;;;-142.59;100.00;56100.38;4960567;28;49502;-72
2023/03/15 11:14:33;;;;;;;;;19.75;18.00;;;;;-142.59;100.00;56100.38;4978876;28;49408;-72
2023/03/15 11:17:00;;;;;;;;;3.75;3.75;;;;;-142.59;100.00;56100.38;4968203;28;49228;-67
2023/03/15 11:19:30;;;;;;;;;80.67;64.67;;;;;-142.59;100.00;56100.38;4974054;28;49836;-71
2023/03/15 11:21:58;;;;;;;;;78.00;61.00;;;;;-142.59;100.00;56100.38;4969640;28;49496;-69
2023/03/15 11:24:26;;;;;;;;;25.75;22.00;;;;;-142.59;100.00;56100.38;4970079;28;49352;-72
2023/03/15 11:26:55;;;;;;;;;10.75;10.25;;;;;-142.59;100.00;56100.38;4967633;28;49652;-70
2023/03/15 11:29:47;;;;;;;;;49.25;39.00;;;;;-142.59;100.00;56100.38;4956335;28;49861;-68
2023/03/15 11:32:17;;;;;;;;;53.00;43.25;;;;;-142.59;100.00;56100.38;4966171;28;49444;-71
2023/03/15 11:34:58;;;;;;;;;11.50;10.75;;;;;-142.59;100.00;56100.38;4983158;28;49847;-75
2023/03/15 11:37:31;;;;;;;;;3.25;3.25;;;;;-142.59;100.00;56100.38;4972104;28;49344;-69
2023/03/15 11:40:03;;;;;;;;;8.25;8.25;;;;;-142.59;100.00;56100.38;4988052;28;49882;-69
2023/03/15 11:42:37;;;;;;;;;2.50;1.50;;;;;-142.59;100.00;56100.38;4971456;28;49452;-77
2023/03/15 11:45:14;;;;;;;;;1.00;1.00;;;;;-142.59;100.00;56100.38;4970266;28;49752;-71
2023/03/15 11:47:50;;;;;;;;;1.00;1.00;;;;;-142.59;100.00;56100.38;4957491;28;49755;-74
2023/03/15 11:50:16;;;;;;;;;3.75;1.25;;;;;-142.59;100.00;56100.38;4945392;28;52072;-70
2023/03/15 11:52:42;;;;;;;;;1.00;1.00;;;;;-142.59;100.00;56100.38;4961522;28;50438;-73
2023/03/15 11:55:18;;;;;;;;;1.25;1.25;;;;;-142.59;100.00;56100.38;4961301;28;49886;-82
2023/03/15 11:57:45;;;;;;;;;5.25;3.00;;;;;-142.59;100.00;56100.38;4956049;28;49743;-72
2023/03/15 12:00:17;;;;;;;;;4.25;4.25;;;;;-142.59;100.00;56100.38;4961174;28;51476;-73
2023/03/15 12:02:51;;;;;;;;;27.75;23.50;;;;;-142.59;100.00;56100.38;4956594;28;50097;-70
2023/03/15 12:05:48;;;;;;;;;16.50;11.50;;;;;-142.59;100.00;56100.38;4958387;28;50106;-71
2023/03/15 12:08:20;;;;;;;;;1.25;0.00;;;;;-142.59;100.00;56100.38;4936757;28;50188;-70
2023/03/15 12:10:48;;;;;;;;;5.25;1.00;;;;;-142.59;100.00;56100.38;4969141;28;49779;-70
2023/03/15 12:13:32;;;;;;;;;0.75;0.75;;;;;-142.59;100.00;56100.38;4964433;28;49794;-70
2023/03/15 12:15:58;;;;;;;;;5.00;2.00;;;;;-142.59;100.00;56100.38;4952034;28;49800;-75
2023/03/15 12:18:42;;;;;;;;;1.00;1.00;;;;;-142.59;100.00;56100.38;4958829;28;50018;-69
2023/03/15 12:21:20;;;;;;;;;1.50;1.00;;;;;-142.59;100.00;56100.38;4958089;28;50004;-69
2023/03/15 12:24:00;;;;;;;;;1.00;1.00;;;;;-142.59;100.00;56100.38;4961699;28;49812;-70
2023/03/15 12:26:30;;;;;;;;;0.25;0.25;;;;;-142.59;100.00;56100.38;4960972;28;50075;-69
2023/03/15 12:28:59;;;;;;;;;1.50;0.25;;;;;-142.59;100.00;56100.38;4948196;28;49929;-69
2023/03/15 12:31:26;;;;;;;;;2.25;2.25;;;;;-142.59;100.00;56100.38;4957852;28;50545;-70
2023/03/15 12:33:57;;;;;;;;;2.75;2.00;;;;;-142.59;100.00;56100.38;4956643;28;49969;-76
2023/03/15 12:36:34;;;;;;;;;0.00;0.00;;;;;-142.59;100.00;56100.38;4958086;28;49961;-75
2023/03/15 12:39:22;;;;;;;;;0.00;0.00;;;;;-142.59;100.00;56100.38;4969038;28;49854;-73
2023/03/15 12:41:50;;;;;;;;;0.00;0.00;;;;;-142.59;100.00;56100.38;4941541;28;50814;-73
2023/03/15 12:44:30;;;;;;;;;1.00;0.25;;;;;-142.59;100.00;56100.38;4971054;28;49970;-71
2023/03/15 12:46:58;;;;;;;;;4.00;1.75;;;;;-142.59;100.00;56100.38;4960585;28;49887;-80
2023/03/15 12:49:23;;;;;;;;;1.75;1.00;;;;;-142.59;100.00;56100.38;4955468;28;49953;-71
2023/03/15 12:52:26;;;;;;;;;2.00;2.00;;;;;-142.59;100.00;56100.38;4956973;28;49969;-70
2023/03/15 12:55:04;;;;;;;;;4.50;2.75;;;;;-142.59;100.00;56100.38;4952359;28;49740;-76
2023/03/15 12:57:37;;;;;;;;;3.25;2.00;;;;;-142.59;100.00;56100.38;4963282;28;50105;-70
2023/03/15 13:00:17;;;;;;;;;8.00;3.00;;;;;-142.59;100.00;56100.38;4964031;28;50036;-76
2023/03/15 13:02:50;;;;;;;;;3.00;1.00;;;;;-142.59;100.00;56100.38;4955187;28;50699;-77
2023/03/15 13:05:27;;;;;;;;;2.00;0.00;;;;;-142.59;100.00;56100.38;4955236;28;49795;-70
2023/03/15 13:08:21;;;;;;;;;0.25;0.25;;;;;-142.59;100.00;56100.38;4952177;28;49712;-71
2023/03/15 13:11:02;;;;;;;;;0.00;0.00;;;;;-142.59;100.00;56100.38;4952157;28;50717;-77
2023/03/15 13:14:09;;;;;;;;;0.00;0.00;;;;;-142.59;100.00;56100.38;4935818;28;50920;-77
2023/03/15 13:16:37;;;;;;;;;3.00;1.00;;;;;-142.59;100.00;56100.38;4905350;28;49970;-79
2023/03/15 13:19:16;;;;;;;;;3.50;2.25;;;;;-142.59;100.00;56100.38;4902084;28;50066;-75
2023/03/15 13:21:55;;;;;;;;;1.75;1.75;;;;;-142.59;100.00;56100.38;4934992;28;50040;-80
2023/03/15 13:24:47;;;;;;;;;3.00;1.75;;;;;-142.59;100.00;56100.38;4967145;28;50622;-71
2023/03/15 13:27:43;;;;;;;;;2.00;2.00;;;;;-142.59;100.00;56100.38;4941481;28;50184;-79
2023/03/15 13:30:30;;;;;;;;;2.00;0.00;;;;;-142.59;100.00;56100.38;4965233;28;49781;-68
2023/03/15 13:33:18;;;;;;;;;2.00;1.00;;;;;-142.59;100.00;56100.38;4963604;28;50197;-73
2023/03/15 13:35:47;;;;;;;;;1.00;1.00;;;;;-142.59;100.00;56100.38;4964824;28;50264;-75
2023/03/15 13:38:25;;;;;;;;;1.00;1.00;;;;;-142.59;100.00;56100.38;4965579;28;50011;-71
2023/03/15 13:40:51;;;;;;;;;1.00;1.00;;;;;-142.59;100.00;56100.38;4947463;28;49924;-69
2023/03/15 13:43:17;;;;;;;;;1.00;1.00;;;;;-142.59;100.00;56100.38;4962196;28;49843;-70
2023/03/15 13:45:43;;;;;;;;;1.75;0.50;;;;;-142.59;100.00;56100.38;4957154;28;50486;-70
2023/03/15 13:48:09;;;;;;;;;0.00;0.00;;;;;-142.59;100.00;56100.38;4951017;28;49968;-79
2023/03/15 13:50:35;;;;;;;;;0.00;0.00;;;;;-142.59;100.00;56100.38;4951561;28;49992;-77
2023/03/15 13:53:01;;;;;;;;;0.25;0.25;;;;;-142.59;100.00;56100.38;4951440;28;49823;-72
2023/03/15 13:55:32;;;;;;;;;1.00;1.00;;;;;-142.59;100.00;56100.38;4953904;28;50710;-69
2023/03/15 13:58:05;;;;;;;;;1.50;0.00;;;;;-142.59;100.00;56100.38;4953239;28;49718;-70
2023/03/15 14:00:33;;;;;;;;;2.00;2.00;;;;;-142.59;100.00;56100.38;4951421;28;49846;-69
2023/03/15 14:03:04;;;;;;;;;1.00;1.00;;;;;-142.59;100.00;56100.38;4957699;28;49720;-71
2023/03/15 14:05:35;;;;;;;;;3.00;1.00;;;;;-142.59;100.00;56100.38;4951667;28;52441;-68
2023/03/15 14:08:14;;;;;;;;;2.25;1.50;;;;;-142.59;100.00;56100.38;4951779;28;49562;-68
2023/03/15 14:10:40;;;;;;;;;2.00;1.50;;;;;-142.59;100.00;56100.38;4952264;28;49839;-77
2023/03/15 14:13:45;;;;;;;;;0.25;0.25;;;;;-142.59;100.00;56100.38;4941906;28;49958;-70
2023/03/15 14:16:16;;;;;;;;;2.00;1.00;;;;;-142.59;100.00;56100.38;4945499;28;51004;-72
2023/03/15 14:18:41;;;;;;;;;2.50;1.25;;;;;-142.59;100.00;56100.38;4960060;28;49883;-69
2023/03/15 14:21:16;;;;;;;;;0.00;0.00;;;;;-142.59;100.00;56100.38;4944589;28;49824;-69
2023/03/15 14:23:44;;;;;;;;;2.25;2.25;;;;;-142.59;100.00;56100.38;4964846;28;49850;-70
2023/03/15 14:26:17;;;;;;;;;0.50;0.50;;;;;-142.59;100.00;56100.38;4950770;28;49822;-71
2023/03/15 14:28:51;;;;;;;;;2.00;2.00;;;;;-142.59;100.00;56100.38;4950410;28;49682;-67
2023/03/15 14:31:31;;;;;;;;;6.75;4.00;;;;;-142.59;100.00;56100.38;4963450;28;50339;-68
2023/03/15 14:34:04;;;;;;;;;1.00;1.00;;;;;-142.59;100.00;56100.38;4952895;28;49959;-70
2023/03/15 14:36:32;;;;;;;;;2.00;1.00;;;;;-142.59;100.00;56100.38;4950890;28;50003;-68
2023/03/15 14:38:58;;;;;;;;;1.00;1.00;;;;;-142.59;100.00;56100.38;4955152;28;50118;-69
2023/03/15 14:41:31;;;;;;;;;0.00;0.00;;;;;-142.59;100.00;56100.38;4954669;28;49601;-67
2023/03/15 14:43:57;;;;;;;;;0.75;0.50;;;;;-142.59;100.00;56100.38;4950803;28;49855;-68
2023/03/15 14:46:23;;;;;;;;;0.50;0.50;;;;;-142.59;100.00;56100.38;4950469;28;49816;-67
2023/03/15 14:48:50;;;;;;;;;0.25;0.25;;;;;-142.59;100.00;56100.38;4951244;28;49876;-71
2023/03/15 14:51:18;;;;;;;;;1.00;1.00;;;;;-142.59;100.00;56100.38;4957808;28;49620;-66
2023/03/15 14:53:45;;;;;;;;;0.75;0.75;;;;;-142.59;100.00;56100.38;4958006;28;49669;-67
2023/03/15 14:56:12;;;;;;;;;0.50;0.50;;;;;-142.59;100.00;56100.38;4956968;28;51091;-69
2023/03/15 14:58:38;;;;;;;;;0.75;0.75;;;;;-142.59;100.00;56100.38;4954093;28;49619;-74
2023/03/15 15:01:03;;;;;;;;;1.00;1.00;;;;;-142.59;100.00;56100.38;4954874;28;49886;-66
2023/03/15 15:03:32;;;;;;;;;1.50;0.00;;;;;-142.59;100.00;56100.38;4961807;28;49773;-67
2023/03/15 15:05:59;;;;;;;;;2.00;1.00;;;;;-142.59;100.00;56100.38;4972417;28;49980;-66
2023/03/15 15:08:24;;;;;;;;;3.25;0.75;;;;;-142.59;100.00;56100.38;4972405;28;49979;-68
2023/03/15 15:10:52;;;;;;;;;0.50;0.50;;;;;-142.59;100.00;56100.38;4958898;28;49787;-69
2023/03/15 15:13:20;;;;;;;;;1.75;1.00;;;;;-142.59;100.00;56100.38;4959149;28;49992;-66
2023/03/15 15:15:46;;;;;;;;;2.75;1.75;;;;;-142.59;100.00;56100.38;4962270;28;50458;-67
2023/03/15 15:18:11;;;;;;;;;1.00;0.75;;;;;-142.59;100.00;56100.38;4958005;28;49810;-74
2023/03/15 15:20:36;;;;;;;;;1.00;1.00;;;;;-142.59;100.00;56100.38;4953375;28;49543;-77
2023/03/15 15:23:02;;;;;;;;;0.25;0.00;;;;;-142.59;100.00;56100.38;4953671;28;49975;-72
2023/03/15 15:25:32;;;;;;;;;1.00;1.00;;;;;-142.59;100.00;56100.38;4954475;28;50898;-71
2023/03/15 15:27:58;;;;;;;;;1.00;1.00;;;;;-142.59;100.00;56100.38;4955217;28;49566;-67
2023/03/15 15:30:24;;;;;;;;;0.25;0.00;;;;;-142.59;100.00;56100.38;4954570;28;50377;-69
2023/03/15 15:32:50;;;;;;;;;0.00;0.00;;;;;-142.59;100.00;56100.38;4955070;28;49625;-69
2023/03/15 15:35:18;;;;;;;;;0.25;0.25;;;;;-142.59;100.00;56100.38;4953793;28;50037;-67
2023/03/15 15:37:46;;;;;;;;;1.50;1.00;;;;;-142.59;100.00;56100.38;4962371;28;49769;-69
2023/03/15 15:40:17;;;;;;;;;0.00;0.00;;;;;-142.59;100.00;56100.38;4956677;28;49845;-70
2023/03/15 15:42:46;;;;;;;;;0.25;0.25;;;;;-142.59;100.00;56100.38;4951067;28;50019;-66
2023/03/15 15:45:15;;;;;;;;;0.00;0.00;;;;;-142.59;100.00;56100.38;4972514;28;50904;-72
2023/03/15 15:47:40;;;;;;;;;1.00;1.00;;;;;-142.59;100.00;56100.38;4960035;28;49771;-71
2023/03/15 15:50:09;;;;;;;;;0.00;0.00;;;;;-142.59;100.00;56100.38;4958195;28;49805;-76
2023/03/15 15:52:36;;;;;;;;;1.00;0.00;;;;;-142.59;100.00;56100.38;4971176;28;50052;-74
2023/03/15 15:55:01;;;;;;;;;2.00;1.00;;;;;-142.59;100.00;56100.38;4967936;28;50992;-71
2023/03/15 15:57:30;;;;;;;;;2.00;1.00;;;;;-142.59;100.00;56100.38;4966713;28;51101;-75
2023/03/15 15:59:55;;;;;;;;;1.50;0.50;;;;;-142.59;100.00;56100.38;4963066;28;49833;-68
2023/03/15 16:02:21;;;;;;;;;0.50;0.00;;;;;-142.59;100.00;56100.38;4951938;28;49895;-76
2023/03/15 16:04:48;;;;;;;;;1.25;1.25;;;;;-142.59;100.00;56100.38;4952584;28;49960;-70
2023/03/15 16:07:14;;;;;;;;;0.00;0.00;;;;;-142.59;100.00;56100.38;4959012;28;49867;-73
2023/03/15 16:09:43;;;;;;;;;1.00;0.00;;;;;-142.59;100.00;56100.38;4953243;28;49550;-70
2023/03/15 16:12:12;;;;;;;;;3.00;0.00;;;;;-142.59;100.00;56100.38;4953203;28;49728;-71
2023/03/15 16:14:37;;;;;;;;;0.50;0.50;;;;;-142.59;100.00;56100.38;4954423;28;50778;-78
2023/03/15 16:17:30;;;;;;;;;0.00;0.00;;;;;-142.59;100.00;56100.38;4967717;28;49863;-69
2023/03/15 16:19:56;;;;;;;;;1.00;1.00;;;;;-142.59;100.00;56100.38;4949503;28;49982;-74
2023/03/15 16:22:22;;;;;;;;;1.00;0.00;;;;;-142.59;100.00;56100.38;4964814;28;50068;-73
2023/03/15 16:24:52;;;;;;;;;1.25;1.00;;;;;-142.59;100.00;56100.38;4954380;28;50111;-68
2023/03/15 16:27:23;;;;;;;;;0.50;0.50;;;;;-142.59;100.00;56100.38;4952501;28;50047;-68
2023/03/15 16:29:51;;;;;;;;;2.00;2.00;;;;;-142.59;100.00;56100.38;4956128;28;49948;-73
2023/03/15 16:32:19;;;;;;;;;1.25;1.25;;;;;-142.59;100.00;56100.38;4953271;28;49639;-69
2023/03/15 16:34:46;;;;;;;;;0.75;0.75;;;;;-142.59;100.00;56100.38;4947280;28;51803;-71
2023/03/15 16:37:14;;;;;;;;;1.75;1.75;;;;;-142.59;100.00;56100.38;4967347;28;49483;-70
2023/03/15 16:39:43;;;;;;;;;2.00;1.00;;;;;-142.59;100.00;56100.38;4963137;28;49948;-70
2023/03/15 16:42:13;;;;;;;;;2.00;1.00;;;;;-142.59;100.00;56100.38;4957030;28;49843;-74
2023/03/15 16:44:41;;;;;;;;;2.00;2.00;;;;;-142.59;100.00;56100.38;4956435;28;49877;-66
2023/03/15 16:47:08;;;;;;;;;2.00;2.00;;;;;-142.59;100.00;56100.38;4962404;28;49713;-70
2023/03/15 16:49:33;;;;;;;;;2.00;2.00;;;;;-142.59;100.00;56100.38;4953726;28;49800;-70
2023/03/15 16:52:00;;;;;;;;;0.50;0.50;;;;;-142.59;100.00;56100.38;4958207;28;49736;-71
2023/03/15 16:54:27;;;;;;;;;0.25;0.25;;;;;-142.59;100.00;56100.38;4957231;28;52169;-77
2023/03/15 16:56:53;;;;;;;;;1.00;1.00;;;;;-142.59;100.00;56100.38;4956239;28;49740;-72
2023/03/15 16:59:18;;;;;;;;;1.50;1.50;;;;;-142.59;100.00;56100.38;4970085;28;49434;-79
2023/03/15 17:01:44;;;;;;;;;1.00;1.00;;;;;-142.59;100.00;56100.38;4968247;28;49570;-70
2023/03/15 17:04:11;;;;;;;;;2.75;1.25;;;;;-142.59;100.00;56100.38;4974713;28;50380;-79
2023/03/15 17:06:37;;;;;;;;;2.00;2.00;;;;;-142.59;100.00;56100.38;4957404;28;49666;-75
2023/03/15 17:09:11;;;;;;;;;0.25;0.25;;;;;-142.59;100.00;56100.38;4955704;28;50031;-69
2023/03/15 17:11:38;;;;;;;;;1.00;0.00;;;;;-142.59;100.00;56100.38;4975457;28;49693;-71
2023/03/15 17:14:06;;;;;;;;;2.25;1.50;;;;;-142.59;100.00;56100.38;4941595;28;52594;-73
2023/03/15 17:16:31;;;;;;;;;2.50;1.50;;;;;-142.59;100.00;56100.38;4968048;28;49724;-72
2023/03/15 17:18:56;;;;;;;;;2.25;2.25;;;;;-142.59;100.00;56100.38;4968659;28;49606;-70
2023/03/15 17:21:24;;;;;;;;;1.50;1.00;;;;;-142.59;100.00;56100.38;4969354;28;49559;-69
2023/03/15 17:23:51;;;;;;;;;0.50;0.50;;;;;-142.59;100.00;56100.38;4972063;28;50299;-68
2023/03/15 17:26:19;;;;;;;;;2.00;2.00;;;;;-142.59;100.00;56100.38;4961505;28;49578;-68
2023/03/15 17:28:46;;;;;;;;;2.50;1.75;;;;;-142.59;100.00;56100.38;4954305;28;49796;-72